Hackensack, New Jersey
Current Conditions -  °F | °C
As of 2:51 AM on Sunday 23 Nov 2014 (Local Time) from KTEB Reporting Station
Broken Clouds Broken Clouds  
Wind Chill: 38°   Ceiling: 11000
Heat Index: 41°   Visibility: 10mi
Dew Point: 22°   Wind: 5mph
Humidity: 47%   Direction: 210°SSW
Pressure: 30.17"   Gusts: NA
Location:  40.89°N, 74.04°W
Report Text: KTEB 230751Z 21004KT 10SM BKN110 05/M06 A3017 RMK AO2 SLP216 T00501056
Loading
Personal Weather Stations






























Interactive Weather Map New forecast layout! Learn more

10-Day Weather Forecast

Advertisements
Track Severe Weather on mobile